sensor_id;sensor_type;location;lat;lon;timestamp;noise_LAeq;noise_LA_min;noise_LA_max;noise_LA01;noise_LA95
69609;Laerm;56815;52.320;4.858;2024-02-16T00:00:00;35.02;32.61;37.42;;
69609;Laerm;56815;52.320;4.858;2024-02-16T00:00:11;35.63;33.47;38.43;;
69609;Laerm;56815;52.320;4.858;2024-02-16T00:00:26;35.77;33.17;42.44;;
69609;Laerm;56815;52.320;4.858;2024-02-16T00:00:36;35.98;33.78;38.79;;
69609;Laerm;56815;52.320;4.858;2024-02-16T00:00:47;35.83;33.71;38.61;;
69609;Laerm;56815;52.320;4.858;2024-02-16T00:00:58;35.61;33.12;38.39;;
69609;Laerm;56815;52.320;4.858;2024-02-16T00:01:08;36.16;33.62;40.87;;
69609;Laerm;56815;52.320;4.858;2024-02-16T00:01:19;34.93;32.73;37.19;;
69609;Laerm;56815;52.320;4.858;2024-02-16T00:01:32;35.64;33.30;38.37;;
69609;Laerm;56815;52.320;4.858;2024-02-16T00:01:42;35.68;33.51;38.38;;
69609;Laerm;56815;52.320;4.858;2024-02-16T00:01:53;35.87;33.46;39.21;;
69609;Laerm;56815;52.320;4.858;2024-02-16T00:02:12;35.46;33.46;38.44;;
69609;Laerm;56815;52.320;4.858;2024-02-16T00:02:25;35.73;33.01;41.65;;
69609;Laerm;56815;52.320;4.858;2024-02-16T00:02:36;35.08;32.59;37.66;;
69609;Laerm;56815;52.320;4.858;2024-02-16T00:02:46;35.28;33.05;44.91;;
69609;Laerm;56815;52.320;4.858;2024-02-16T00:02:57;34.71;32.47;42.04;;
69609;Laerm;56815;52.320;4.858;2024-02-16T00:03:07;34.42;31.68;38.75;;
69609;Laerm;56815;52.320;4.858;2024-02-16T00:03:17;34.66;32.54;39.87;;
69609;Laerm;56815;52.320;4.858;2024-02-16T00:03:28;34.41;32.58;41.72;;
69609;Laerm;56815;52.320;4.858;2024-02-16T00:03:38;35.71;32.89;41.24;;
69609;Laerm;56815;52.320;4.858;2024-02-16T00:03:49;35.14;33.06;38.23;;
69609;Laerm;56815;52.320;4.858;2024-02-16T00:03:59;35.13;33.09;37.84;;
69609;Laerm;56815;52.320;4.858;2024-02-16T00:04:17;35.69;32.82;41.25;;
69609;Laerm;56815;52.320;4.858;2024-02-16T00:04:27;35.04;32.90;38.93;;
69609;Laerm;56815;52.320;4.858;2024-02-16T00:04:40;34.34;32.24;38.58;;
69609;Laerm;56815;52.320;4.858;2024-02-16T00:04:51;34.55;32.31;38.04;;
69609;Laerm;56815;52.320;4.858;2024-02-16T00:05:01;34.44;32.57;36.93;;
69609;Laerm;56815;52.320;4.858;2024-02-16T00:05:12;34.56;32.54;42.36;;
69609;Laerm;56815;52.320;4.858;2024-02-16T00:05:22;35.50;32.74;40.54;;
69609;Laerm;56815;52.320;4.858;2024-02-16T00:05:32;34.68;32.63;39.72;;
69609;Laerm;56815;52.320;4.858;2024-02-16T00:05:43;34.57;32.50;42.81;;
69609;Laerm;56815;52.320;4.858;2024-02-16T00:05:53;35.07;32.81;37.48;;
69609;Laerm;56815;52.320;4.858;2024-02-16T00:06:04;34.88;32.60;38.37;;
69609;Laerm;56815;52.320;4.858;2024-02-16T00:06:14;35.51;33.19;40.13;;
69609;Laerm;56815;52.320;4.858;2024-02-16T00:06:24;35.19;33.19;39.89;;
69609;Laerm;56815;52.320;4.858;2024-02-16T00:06:35;34.98;33.01;39.08;;
69609;Laerm;56815;52.320;4.858;2024-02-16T00:06:45;35.07;33.07;38.68;;
69609;Laerm;56815;52.320;4.858;2024-02-16T00:06:57;35.08;33.38;37.12;;
69609;Laerm;56815;52.320;4.858;2024-02-16T00:07:08;35.79;33.33;40.04;;
69609;Laerm;56815;52.320;4.858;2024-02-16T00:07:18;34.47;32.24;40.04;;
69609;Laerm;56815;52.320;4.858;2024-02-16T00:07:28;35.44;32.86;48.04;;
69609;Laerm;56815;52.320;4.858;2024-02-16T00:07:42;35.10;32.62;38.61;;
69609;Laerm;56815;52.320;4.858;2024-02-16T00:07:52;35.84;33.11;51.70;;
69609;Laerm;56815;52.320;4.858;2024-02-16T00:08:03;35.89;33.75;38.41;;
69609;Laerm;56815;52.320;4.858;2024-02-16T00:08:13;35.20;32.99;37.90;;
69609;Laerm;56815;52.320;4.858;2024-02-16T00:08:26;35.29;32.84;37.89;;
69609;Laerm;56815;52.320;4.858;2024-02-16T00:08:37;35.06;32.73;38.22;;
69609;Laerm;56815;52.320;4.858;2024-02-16T00:08:48;35.23;33.37;38.02;;
69609;Laerm;56815;52.320;4.858;2024-02-16T00:08:59;35.28;33.24;39.73;;
69609;Laerm;56815;52.320;4.858;2024-02-16T00:09:09;35.14;33.16;38.29;;
69609;Laerm;56815;52.320;4.858;2024-02-16T00:09:20;35.46;32.20;38.41;;
69609;Laerm;56815;52.320;4.858;2024-02-16T00:09:30;34.60;32.04;38.35;;
69609;Laerm;56815;52.320;4.858;2024-02-16T00:09:40;35.32;33.09;38.77;;
69609;Laerm;56815;52.320;4.858;2024-02-16T00:09:51;35.71;33.24;38.63;;
69609;Laerm;56815;52.320;4.858;2024-02-16T00:10:01;34.94;32.79;39.06;;
69609;Laerm;56815;52.320;4.858;2024-02-16T00:10:12;35.30;32.67;41.88;;
69609;Laerm;56815;52.320;4.858;2024-02-16T00:10:22;34.34;32.60;39.37;;
69609;Laerm;56815;52.320;4.858;2024-02-16T00:10:33;34.81;32.84;42.23;;
69609;Laerm;56815;52.320;4.858;2024-02-16T00:10:43;35.43;32.77;45.49;;
69609;Laerm;56815;52.320;4.858;2024-02-16T00:10:53;34.64;32.86;37.09;;
69609;Laerm;56815;52.320;4.858;2024-02-16T00:11:04;36.31;33.24;46.89;;
69609;Laerm;56815;52.320;4.858;2024-02-16T00:11:19;35.65;33.50;38.25;;
69609;Laerm;56815;52.320;4.858;2024-02-16T00:11:29;35.45;33.04;40.90;;
69609;Laerm;56815;52.320;4.858;2024-02-16T00:11:42;35.83;33.32;37.96;;
69609;Laerm;56815;52.320;4.858;2024-02-16T00:11:53;35.12;32.83;39.21;;
69609;Laerm;56815;52.320;4.858;2024-02-16T00:12:12;34.76;32.96;39.86;;
69609;Laerm;56815;52.320;4.858;2024-02-16T00:12:42;36.16;32.23;56.15;;
69609;Laerm;56815;52.320;4.858;2024-02-16T00:12:56;34.48;31.90;37.86;;
69609;Laerm;56815;52.320;4.858;2024-02-16T00:13:06;35.03;32.64;37.47;;
69609;Laerm;56815;52.320;4.858;2024-02-16T00:13:17;34.62;32.90;37.08;;
69609;Laerm;56815;52.320;4.858;2024-02-16T00:13:27;34.45;32.81;37.86;;
69609;Laerm;56815;52.320;4.858;2024-02-16T00:13:43;35.88;33.09;48.75;;
69609;Laerm;56815;52.320;4.858;2024-02-16T00:13:56;34.98;33.02;45.73;;
69609;Laerm;56815;52.320;4.858;2024-02-16T00:14:09;34.56;32.14;37.56;;
69609;Laerm;56815;52.320;4.858;2024-02-16T00:14:20;34.74;32.48;38.30;;
69609;Laerm;56815;52.320;4.858;2024-02-16T00:14:33;36.70;32.17;54.59;;
69609;Laerm;56815;52.320;4.858;2024-02-16T00:14:43;34.69;32.15;37.73;;
69609;Laerm;56815;52.320;4.858;2024-02-16T00:14:56;35.22;33.00;40.82;;
69609;Laerm;56815;52.320;4.858;2024-02-16T00:15:12;35.55;33.00;42.27;;
69609;Laerm;56815;52.320;4.858;2024-02-16T00:15:30;35.15;32.59;47.06;;
69609;Laerm;56815;52.320;4.858;2024-02-16T00:15:40;35.50;33.48;41.08;;
69609;Laerm;56815;52.320;4.858;2024-02-16T00:16:14;36.74;33.19;56.07;;
69609;Laerm;56815;52.320;4.858;2024-02-16T00:16:24;35.94;32.67;43.29;;
69609;Laerm;56815;52.320;4.858;2024-02-16T00:16:34;35.56;33.64;37.96;;
69609;Laerm;56815;52.320;4.858;2024-02-16T00:16:56;35.17;32.61;40.62;;
69609;Laerm;56815;52.320;4.858;2024-02-16T00:17:09;35.47;33.08;39.51;;
69609;Laerm;56815;52.320;4.858;2024-02-16T00:17:25;34.24;32.49;38.32;;
69609;Laerm;56815;52.320;4.858;2024-02-16T00:17:38;34.63;32.06;37.40;;
69609;Laerm;56815;52.320;4.858;2024-02-16T00:17:49;34.26;31.34;40.09;;
69609;Laerm;56815;52.320;4.858;2024-02-16T00:17:59;34.04;31.93;40.40;;
69609;Laerm;56815;52.320;4.858;2024-02-16T00:18:10;34.55;32.35;40.66;;
69609;Laerm;56815;52.320;4.858;2024-02-16T00:18:20;34.64;32.70;40.75;;
69609;Laerm;56815;52.320;4.858;2024-02-16T00:18:30;34.46;32.26;39.15;;
69609;Laerm;56815;52.320;4.858;2024-02-16T00:18:43;34.87;32.73;40.42;;
69609;Laerm;56815;52.320;4.858;2024-02-16T00:18:53;34.28;32.00;40.41;;
69609;Laerm;56815;52.320;4.858;2024-02-16T00:19:04;34.41;32.32;39.10;;
69609;Laerm;56815;52.320;4.858;2024-02-16T00:19:14;34.33;32.15;36.77;;
69609;Laerm;56815;52.320;4.858;2024-02-16T00:19:25;34.75;32.60;37.63;;
69609;Laerm;56815;52.320;4.858;2024-02-16T00:19:35;35.78;32.89;38.88;;
69609;Laerm;56815;52.320;4.858;2024-02-16T00:19:48;35.21;32.90;38.74;;
69609;Laerm;56815;52.320;4.858;2024-02-16T00:19:58;35.74;32.53;42.58;;
69609;Laerm;56815;52.320;4.858;2024-02-16T00:20:09;34.19;31.88;38.19;;
69609;Laerm;56815;52.320;4.858;2024-02-16T00:20:22;34.17;32.40;38.06;;
69609;Laerm;56815;52.320;4.858;2024-02-16T00:20:34;34.33;32.04;37.33;;
69609;Laerm;56815;52.320;4.858;2024-02-16T00:20:44;35.16;33.08;38.79;;
69609;Laerm;56815;52.320;4.858;2024-02-16T00:20:56;35.77;32.60;40.32;;
69609;Laerm;56815;52.320;4.858;2024-02-16T00:21:07;34.67;32.32;39.78;;
69609;Laerm;56815;52.320;4.858;2024-02-16T00:21:17;34.46;32.10;36.19;;
69609;Laerm;56815;52.320;4.858;2024-02-16T00:21:27;34.57;32.58;44.57;;
69609;Laerm;56815;52.320;4.858;2024-02-16T00:21:37;35.02;31.94;39.58;;
69609;Laerm;56815;52.320;4.858;2024-02-16T00:21:52;35.02;32.58;37.94;;
69609;Laerm;56815;52.320;4.858;2024-02-16T00:22:02;33.95;31.69;37.39;;
69609;Laerm;56815;52.320;4.858;2024-02-16T00:22:12;34.17;31.79;39.99;;
69609;Laerm;56815;52.320;4.858;2024-02-16T00:22:26;34.01;32.09;37.36;;
69609;Laerm;56815;52.320;4.858;2024-02-16T00:22:36;35.06;32.29;38.46;;
69609;Laerm;56815;52.320;4.858;2024-02-16T00:22:52;34.98;32.45;48.01;;
69609;Laerm;56815;52.320;4.858;2024-02-16T00:23:02;34.88;32.68;37.97;;
69609;Laerm;56815;52.320;4.858;2024-02-16T00:23:15;34.66;32.26;38.02;;
69609;Laerm;56815;52.320;4.858;2024-02-16T00:23:26;33.96;31.51;38.96;;
69609;Laerm;56815;52.320;4.858;2024-02-16T00:23:36;33.59;31.78;39.99;;
69609;Laerm;56815;52.320;4.858;2024-02-16T00:23:47;33.73;31.70;38.42;;
69609;Laerm;56815;52.320;4.858;2024-02-16T00:23:57;34.51;31.65;38.52;;
69609;Laerm;56815;52.320;4.858;2024-02-16T00:24:10;33.65;31.50;38.33;;
69609;Laerm;56815;52.320;4.858;2024-02-16T00:24:24;34.02;31.47;38.97;;
69609;Laerm;56815;52.320;4.858;2024-02-16T00:24:34;34.04;32.15;39.63;;
69609;Laerm;56815;52.320;4.858;2024-02-16T00:24:46;34.33;32.28;37.95;;
69609;Laerm;56815;52.320;4.858;2024-02-16T00:24:56;34.65;32.84;37.25;;
69609;Laerm;56815;52.320;4.858;2024-02-16T00:25:07;34.19;32.12;38.30;;
69609;Laerm;56815;52.320;4.858;2024-02-16T00:25:19;34.80;32.41;37.18;;
69609;Laerm;56815;52.320;4.858;2024-02-16T00:25:30;34.71;32.28;39.04;;
69609;Laerm;56815;52.320;4.858;2024-02-16T00:25:40;35.07;32.57;39.09;;
69609;Laerm;56815;52.320;4.858;2024-02-16T00:25:51;34.99;32.17;39.00;;
69609;Laerm;56815;52.320;4.858;2024-02-16T00:26:02;35.31;33.13;39.31;;
69609;Laerm;56815;52.320;4.858;2024-02-16T00:26:12;34.54;31.88;40.18;;
69609;Laerm;56815;52.320;4.858;2024-02-16T00:26:22;34.22;32.37;37.23;;
69609;Laerm;56815;52.320;4.858;2024-02-16T00:26:33;34.21;31.98;36.67;;
69609;Laerm;56815;52.320;4.858;2024-02-16T00:26:43;34.54;32.22;38.23;;
69609;Laerm;56815;52.320;4.858;2024-02-16T00:26:55;34.97;32.54;41.93;;
69609;Laerm;56815;52.320;4.858;2024-02-16T00:27:05;34.66;32.42;41.81;;
69609;Laerm;56815;52.320;4.858;2024-02-16T00:27:16;34.50;32.54;38.14;;
69609;Laerm;56815;52.320;4.858;2024-02-16T00:27:26;34.45;32.52;42.26;;
69609;Laerm;56815;52.320;4.858;2024-02-16T00:27:36;34.37;32.31;42.05;;
69609;Laerm;56815;52.320;4.858;2024-02-16T00:27:47;34.21;31.98;39.77;;
69609;Laerm;56815;52.320;4.858;2024-02-16T00:27:57;34.13;31.26;41.13;;
69609;Laerm;56815;52.320;4.858;2024-02-16T00:28:08;33.56;31.79;38.90;;
69609;Laerm;56815;52.320;4.858;2024-02-16T00:28:18;33.55;31.46;36.50;;
69609;Laerm;56815;52.320;4.858;2024-02-16T00:28:40;33.52;31.44;38.82;;
69609;Laerm;56815;52.320;4.858;2024-02-16T00:29:01;34.42;31.57;46.62;;
69609;Laerm;56815;52.320;4.858;2024-02-16T00:29:14;33.45;31.73;38.96;;
69609;Laerm;56815;52.320;4.858;2024-02-16T00:29:24;33.86;31.26;38.75;;
69609;Laerm;56815;52.320;4.858;2024-02-16T00:29:37;34.45;31.73;39.90;;
69609;Laerm;56815;52.320;4.858;2024-02-16T00:29:51;34.22;32.18;36.23;;
69609;Laerm;56815;52.320;4.858;2024-02-16T00:30:01;34.14;31.43;38.88;;
69609;Laerm;56815;52.320;4.858;2024-02-16T00:30:12;35.74;32.34;51.86;;
69609;Laerm;56815;52.320;4.858;2024-02-16T00:30:23;34.72;32.40;37.30;;
69609;Laerm;56815;52.320;4.858;2024-02-16T00:30:35;34.39;32.11;39.87;;
69609;Laerm;56815;52.320;4.858;2024-02-16T00:30:46;34.68;32.95;41.18;;
69609;Laerm;56815;52.320;4.858;2024-02-16T00:30:57;35.00;32.46;49.07;;
69609;Laerm;56815;52.320;4.858;2024-02-16T00:31:07;35.04;32.81;41.40;;
69609;Laerm;56815;52.320;4.858;2024-02-16T00:31:17;34.99;33.02;41.41;;
69609;Laerm;56815;52.320;4.858;2024-02-16T00:31:32;34.86;32.65;46.75;;
69609;Laerm;56815;52.320;4.858;2024-02-16T00:31:42;34.73;32.80;39.90;;
69609;Laerm;56815;52.320;4.858;2024-02-16T00:31:53;35.70;33.50;38.35;;
69609;Laerm;56815;52.320;4.858;2024-02-16T00:32:04;35.58;32.59;38.53;;
69609;Laerm;56815;52.320;4.858;2024-02-16T00:32:16;35.03;33.16;38.37;;
69609;Laerm;56815;52.320;4.858;2024-02-16T00:32:29;34.64;32.61;39.92;;
69609;Laerm;56815;52.320;4.858;2024-02-16T00:32:43;35.28;32.62;39.67;;
69609;Laerm;56815;52.320;4.858;2024-02-16T00:32:55;36.18;33.90;41.87;;
69609;Laerm;56815;52.320;4.858;2024-02-16T00:33:05;35.87;33.80;37.95;;
69609;Laerm;56815;52.320;4.858;2024-02-16T00:33:17;35.37;33.44;37.35;;
69609;Laerm;56815;52.320;4.858;2024-02-16T00:33:29;35.09;32.03;39.25;;
69609;Laerm;56815;52.320;4.858;2024-02-16T00:33:39;34.79;32.58;37.40;;
69609;Laerm;56815;52.320;4.858;2024-02-16T00:33:49;35.17;33.18;37.61;;
69609;Laerm;56815;52.320;4.858;2024-02-16T00:33:59;35.97;32.66;41.58;;
69609;Laerm;56815;52.320;4.858;2024-02-16T00:34:10;36.17;33.39;41.50;;
69609;Laerm;56815;52.320;4.858;2024-02-16T00:34:20;34.69;32.56;37.10;;
69609;Laerm;56815;52.320;4.858;2024-02-16T00:34:33;34.50;32.44;38.24;;
69609;Laerm;56815;52.320;4.858;2024-02-16T00:34:46;34.71;32.78;38.00;;
69609;Laerm;56815;52.320;4.858;2024-02-16T00:34:57;35.47;32.94;41.29;;
69609;Laerm;56815;52.320;4.858;2024-02-16T00:35:10;36.04;32.98;40.01;;
69609;Laerm;56815;52.320;4.858;2024-02-16T00:35:23;35.10;32.57;40.14;;
69609;Laerm;56815;52.320;4.858;2024-02-16T00:35:37;34.66;32.07;39.00;;
69609;Laerm;56815;52.320;4.858;2024-02-16T00:35:50;34.90;32.17;39.84;;
69609;Laerm;56815;52.320;4.858;2024-02-16T00:36:03;34.72;32.39;37.47;;
69609;Laerm;56815;52.320;4.858;2024-02-16T00:36:13;34.26;32.08;41.11;;
69609;Laerm;56815;52.320;4.858;2024-02-16T00:36:25;34.24;31.45;37.67;;
69609;Laerm;56815;52.320;4.858;2024-02-16T00:36:36;33.44;31.42;40.32;;
69609;Laerm;56815;52.320;4.858;2024-02-16T00:37:37;34.61;31.72;50.30;;
69609;Laerm;56815;52.320;4.858;2024-02-16T00:37:55;34.50;31.81;40.36;;
69609;Laerm;56815;52.320;4.858;2024-02-16T00:38:05;33.99;31.68;37.30;;
69609;Laerm;56815;52.320;4.858;2024-02-16T00:38:16;34.18;32.34;37.48;;
69609;Laerm;56815;52.320;4.858;2024-02-16T00:38:29;33.75;31.67;36.75;;
69609;Laerm;56815;52.320;4.858;2024-02-16T00:38:39;34.27;31.93;38.74;;
69609;Laerm;56815;52.320;4.858;2024-02-16T00:38:50;34.74;32.96;37.53;;
69609;Laerm;56815;52.320;4.858;2024-02-16T00:39:00;34.25;31.95;39.13;;
69609;Laerm;56815;52.320;4.858;2024-02-16T00:39:16;35.11;32.13;39.36;;
69609;Laerm;56815;52.320;4.858;2024-02-16T00:39:26;34.62;32.35;39.18;;
69609;Laerm;56815;52.320;4.858;2024-02-16T00:39:37;33.73;31.73;39.16;;
69609;Laerm;56815;52.320;4.858;2024-02-16T00:39:47;33.93;32.20;37.56;;
69609;Laerm;56815;52.320;4.858;2024-02-16T00:39:57;33.95;31.97;41.59;;
69609;Laerm;56815;52.320;4.858;2024-02-16T00:40:08;33.86;31.50;37.66;;
69609;Laerm;56815;52.320;4.858;2024-02-16T00:40:19;33.44;31.22;40.20;;
69609;Laerm;56815;52.320;4.858;2024-02-16T00:40:29;33.91;31.78;45.00;;
69609;Laerm;56815;52.320;4.858;2024-02-16T00:40:39;33.75;31.68;40.27;;
69609;Laerm;56815;52.320;4.858;2024-02-16T00:40:53;33.82;31.77;36.40;;
69609;Laerm;56815;52.320;4.858;2024-02-16T00:41:03;34.18;31.79;36.73;;
69609;Laerm;56815;52.320;4.858;2024-02-16T00:41:21;33.91;32.03;36.81;;
69609;Laerm;56815;52.320;4.858;2024-02-16T00:41:32;34.73;32.10;43.51;;
69609;Laerm;56815;52.320;4.858;2024-02-16T00:41:42;34.20;31.98;39.47;;
69609;Laerm;56815;52.320;4.858;2024-02-16T00:41:52;34.12;31.82;39.39;;
69609;Laerm;56815;52.320;4.858;2024-02-16T00:42:03;34.68;32.71;38.97;;
69609;Laerm;56815;52.320;4.858;2024-02-16T00:42:13;34.61;31.87;38.07;;
69609;Laerm;56815;52.320;4.858;2024-02-16T00:42:23;34.85;32.49;40.77;;
69609;Laerm;56815;52.320;4.858;2024-02-16T00:42:34;34.52;32.38;37.95;;
69609;Laerm;56815;52.320;4.858;2024-02-16T00:42:44;34.03;31.85;39.38;;
69609;Laerm;56815;52.320;4.858;2024-02-16T00:42:55;34.52;32.09;37.04;;
69609;Laerm;56815;52.320;4.858;2024-02-16T00:43:05;35.68;32.88;52.78;;
69609;Laerm;56815;52.320;4.858;2024-02-16T00:43:15;33.94;31.85;40.19;;
69609;Laerm;56815;52.320;4.858;2024-02-16T00:43:33;34.85;32.44;37.77;;
69609;Laerm;56815;52.320;4.858;2024-02-16T00:43:47;34.81;32.06;41.07;;
69609;Laerm;56815;52.320;4.858;2024-02-16T00:43:57;34.47;31.88;40.60;;
69609;Laerm;56815;52.320;4.858;2024-02-16T00:44:07;35.94;32.53;39.65;;
69609;Laerm;56815;52.320;4.858;2024-02-16T00:44:18;34.64;32.42;42.55;;
69609;Laerm;56815;52.320;4.858;2024-02-16T00:44:28;34.37;32.15;39.12;;
69609;Laerm;56815;52.320;4.858;2024-02-16T00:44:38;33.80;31.69;36.66;;
69609;Laerm;56815;52.320;4.858;2024-02-16T00:44:49;34.21;32.07;39.84;;
69609;Laerm;56815;52.320;4.858;2024-02-16T00:45:08;33.83;31.72;37.99;;
69609;Laerm;56815;52.320;4.858;2024-02-16T00:45:19;33.53;31.33;37.25;;
69609;Laerm;56815;52.320;4.858;2024-02-16T00:45:29;35.18;31.45;54.71;;
69609;Laerm;56815;52.320;4.858;2024-02-16T00:45:39;34.19;32.20;37.32;;
69609;Laerm;56815;52.320;4.858;2024-02-16T00:45:54;33.97;31.67;38.98;;
69609;Laerm;56815;52.320;4.858;2024-02-16T00:46:06;33.73;31.63;39.51;;
69609;Laerm;56815;52.320;4.858;2024-02-16T00:46:19;34.96;32.60;39.91;;
69609;Laerm;56815;52.320;4.858;2024-02-16T00:46:32;34.54;32.34;38.88;;
69609;Laerm;56815;52.320;4.858;2024-02-16T00:46:44;34.71;32.63;37.99;;
69609;Laerm;56815;52.320;4.858;2024-02-16T00:46:54;34.89;32.60;38.16;;
69609;Laerm;56815;52.320;4.858;2024-02-16T00:47:04;35.34;32.78;37.75;;
69609;Laerm;56815;52.320;4.858;2024-02-16T00:47:18;34.56;32.51;41.99;;
69609;Laerm;56815;52.320;4.858;2024-02-16T00:47:41;34.58;31.92;40.03;;
69609;Laerm;56815;52.320;4.858;2024-02-16T00:47:52;34.19;32.36;39.06;;
69609;Laerm;56815;52.320;4.858;2024-02-16T00:48:03;34.60;31.86;39.01;;
69609;Laerm;56815;52.320;4.858;2024-02-16T00:48:14;34.01;32.17;37.13;;
69609;Laerm;56815;52.320;4.858;2024-02-16T00:48:24;34.30;32.69;36.84;;
69609;Laerm;56815;52.320;4.858;2024-02-16T00:48:34;33.98;32.06;37.39;;
69609;Laerm;56815;52.320;4.858;2024-02-16T00:48:44;35.37;32.16;39.72;;
69609;Laerm;56815;52.320;4.858;2024-02-16T00:48:56;35.34;32.41;38.54;;
69609;Laerm;56815;52.320;4.858;2024-02-16T00:49:06;34.82;32.16;40.28;;
69609;Laerm;56815;52.320;4.858;2024-02-16T00:49:17;34.40;32.27;38.69;;
69609;Laerm;56815;52.320;4.858;2024-02-16T00:49:27;34.00;31.51;37.69;;
69609;Laerm;56815;52.320;4.858;2024-02-16T00:49:38;35.41;32.00;41.82;;
69609;Laerm;56815;52.320;4.858;2024-02-16T00:49:48;35.60;32.53;39.25;;
69609;Laerm;56815;52.320;4.858;2024-02-16T00:49:58;34.84;32.52;37.34;;
69609;Laerm;56815;52.320;4.858;2024-02-16T00:50:11;35.84;33.40;38.74;;
69609;Laerm;56815;52.320;4.858;2024-02-16T00:50:26;34.87;32.13;39.55;;
69609;Laerm;56815;52.320;4.858;2024-02-16T00:50:37;36.08;32.91;39.84;;
69609;Laerm;56815;52.320;4.858;2024-02-16T00:50:47;35.00;33.02;37.64;;
69609;Laerm;56815;52.320;4.858;2024-02-16T00:50:57;35.75;32.59;39.05;;
69609;Laerm;56815;52.320;4.858;2024-02-16T00:51:08;35.43;32.92;40.71;;
69609;Laerm;56815;52.320;4.858;2024-02-16T00:51:18;34.36;32.23;39.97;;
69609;Laerm;56815;52.320;4.858;2024-02-16T00:51:29;34.38;32.10;37.00;;
69609;Laerm;56815;52.320;4.858;2024-02-16T00:51:40;33.68;31.83;38.97;;
69609;Laerm;56815;52.320;4.858;2024-02-16T00:51:50;33.42;31.57;43.93;;
69609;Laerm;56815;52.320;4.858;2024-02-16T00:52:03;33.23;30.97;42.71;;
69609;Laerm;56815;52.320;4.858;2024-02-16T00:52:17;33.80;31.43;40.53;;
69609;Laerm;56815;52.320;4.858;2024-02-16T00:52:28;33.67;31.65;42.07;;
69609;Laerm;56815;52.320;4.858;2024-02-16T00:52:38;33.38;31.31;37.44;;
69609;Laerm;56815;52.320;4.858;2024-02-16T00:52:49;33.42;31.04;37.63;;
69609;Laerm;56815;52.320;4.858;2024-02-16T00:53:00;34.57;31.94;38.46;;
69609;Laerm;56815;52.320;4.858;2024-02-16T00:53:10;33.41;31.33;42.48;;
69609;Laerm;56815;52.320;4.858;2024-02-16T00:53:20;33.24;31.13;38.52;;
69609;Laerm;56815;52.320;4.858;2024-02-16T00:53:31;33.05;30.61;35.90;;
69609;Laerm;56815;52.320;4.858;2024-02-16T00:53:42;32.64;30.71;41.54;;
69609;Laerm;56815;52.320;4.858;2024-02-16T00:53:52;33.20;31.26;36.08;;
69609;Laerm;56815;52.320;4.858;2024-02-16T00:54:03;33.56;30.88;37.72;;
69609;Laerm;56815;52.320;4.858;2024-02-16T00:54:13;33.15;30.52;37.64;;
69609;Laerm;56815;52.320;4.858;2024-02-16T00:54:23;34.08;31.19;44.50;;
69609;Laerm;56815;52.320;4.858;2024-02-16T00:54:34;32.80;30.68;38.53;;
69609;Laerm;56815;52.320;4.858;2024-02-16T00:54:47;32.96;30.94;39.57;;
69609;Laerm;56815;52.320;4.858;2024-02-16T00:54:58;33.03;30.65;46.18;;
69609;Laerm;56815;52.320;4.858;2024-02-16T00:55:08;32.72;30.94;36.84;;
69609;Laerm;56815;52.320;4.858;2024-02-16T00:55:19;33.22;30.86;36.16;;
69609;Laerm;56815;52.320;4.858;2024-02-16T00:55:32;32.91;30.48;38.93;;
69609;Laerm;56815;52.320;4.858;2024-02-16T00:55:47;33.05;30.54;36.44;;
69609;Laerm;56815;52.320;4.858;2024-02-16T00:55:57;32.68;30.89;38.06;;
69609;Laerm;56815;52.320;4.858;2024-02-16T00:56:08;32.57;30.64;36.59;;
69609;Laerm;56815;52.320;4.858;2024-02-16T00:56:18;32.67;30.94;35.90;;
69609;Laerm;56815;52.320;4.858;2024-02-16T00:56:32;33.20;30.61;37.44;;
69609;Laerm;56815;52.320;4.858;2024-02-16T00:56:42;33.10;31.46;36.74;;
69609;Laerm;56815;52.320;4.858;2024-02-16T00:56:53;33.55;30.99;36.56;;
69609;Laerm;56815;52.320;4.858;2024-02-16T00:57:22;33.47;31.18;44.89;;
69609;Laerm;56815;52.320;4.858;2024-02-16T00:57:32;33.34;31.41;39.00;;
69609;Laerm;56815;52.320;4.858;2024-02-16T00:57:44;34.12;31.31;40.54;;
69609;Laerm;56815;52.320;4.858;2024-02-16T00:57:54;33.56;31.22;40.82;;
69609;Laerm;56815;52.320;4.858;2024-02-16T00:58:05;33.79;31.46;40.10;;
69609;Laerm;56815;52.320;4.858;2024-02-16T00:58:15;33.51;31.02;40.08;;
69609;Laerm;56815;52.320;4.858;2024-02-16T00:58:25;34.40;31.95;39.15;;
69609;Laerm;56815;52.320;4.858;2024-02-16T00:58:36;34.97;32.03;39.01;;
69609;Laerm;56815;52.320;4.858;2024-02-16T00:58:46;33.70;31.48;36.57;;
69609;Laerm;56815;52.320;4.858;2024-02-16T00:58:56;35.27;32.36;39.06;;
69609;Laerm;56815;52.320;4.858;2024-02-16T00:59:07;35.19;31.81;40.72;;
69609;Laerm;56815;52.320;4.858;2024-02-16T00:59:22;34.32;31.76;37.40;;
69609;Laerm;56815;52.320;4.858;2024-02-16T00:59:32;35.21;32.84;39.57;;
69609;Laerm;56815;52.320;4.858;2024-02-16T00:59:42;34.68;32.52;36.89;;
69609;Laerm;56815;52.320;4.858;2024-02-16T00:59:53;35.19;32.98;38.55;;
69609;Laerm;56815;52.320;4.858;2024-02-16T01:00:05;35.40;32.64;47.56;;
69609;Laerm;56815;52.320;4.858;2024-02-16T01:00:15;35.63;33.43;38.88;;
69609;Laerm;56815;52.320;4.858;2024-02-16T01:00:32;35.36;32.19;39.04;;
69609;Laerm;56815;52.320;4.858;2024-02-16T01:00:42;35.38;32.73;41.77;;
69609;Laerm;56815;52.320;4.858;2024-02-16T01:00:53;34.63;32.03;37.14;;
69609;Laerm;56815;52.320;4.858;2024-02-16T01:01:04;35.00;32.50;38.33;;
69609;Laerm;56815;52.320;4.858;2024-02-16T01:01:15;35.74;32.09;41.46;;
69609;Laerm;56815;52.320;4.858;2024-02-16T01:01:25;34.84;32.44;45.14;;
69609;Laerm;56815;52.320;4.858;2024-02-16T01:01:36;33.93;31.62;38.84;;
69609;Laerm;56815;52.320;4.858;2024-02-16T01:01:46;34.13;31.89;37.64;;
69609;Laerm;56815;52.320;4.858;2024-02-16T01:01:57;35.03;32.53;40.51;;
69609;Laerm;56815;52.320;4.858;2024-02-16T01:02:07;34.11;32.10;37.68;;
69609;Laerm;56815;52.320;4.858;2024-02-16T01:02:22;33.02;31.25;36.39;;
69609;Laerm;56815;52.320;4.858;2024-02-16T01:02:33;33.43;31.12;38.75;;
69609;Laerm;56815;52.320;4.858;2024-02-16T01:02:43;32.92;30.89;36.39;;
69609;Laerm;56815;52.320;4.858;2024-02-16T01:02:53;33.79;31.61;36.24;;
69609;Laerm;56815;52.320;4.858;2024-02-16T01:03:06;33.15;30.90;40.74;;
69609;Laerm;56815;52.320;4.858;2024-02-16T01:03:16;33.27;31.36;37.97;;
69609;Laerm;56815;52.320;4.858;2024-02-16T01:03:27;34.02;31.62;38.72;;
69609;Laerm;56815;52.320;4.858;2024-02-16T01:03:40;33.98;31.74;37.73;;
69609;Laerm;56815;52.320;4.858;2024-02-16T01:03:50;33.63;31.30;39.70;;
69609;Laerm;56815;52.320;4.858;2024-02-16T01:04:02;33.53;30.69;36.72;;
69609;Laerm;56815;52.320;4.858;2024-02-16T01:04:12;33.42;31.24;38.67;;
69609;Laerm;56815;52.320;4.858;2024-02-16T01:04:26;33.84;31.25;40.16;;
69609;Laerm;56815;52.320;4.858;2024-02-16T01:04:36;34.88;31.35;50.74;;
69609;Laerm;56815;52.320;4.858;2024-02-16T01:04:46;33.54;31.54;40.65;;
69609;Laerm;56815;52.320;4.858;2024-02-16T01:05:00;35.00;31.71;40.18;;
69609;Laerm;56815;52.320;4.858;2024-02-16T01:05:19;34.47;32.39;37.87;;
69609;Laerm;56815;52.320;4.858;2024-02-16T01:05:33;34.35;32.07;41.22;;
69609;Laerm;56815;52.320;4.858;2024-02-16T01:05:43;33.83;31.58;39.11;;
69609;Laerm;56815;52.320;4.858;2024-02-16T01:05:54;34.88;32.21;39.44;;
69609;Laerm;56815;52.320;4.858;2024-02-16T01:06:04;33.99;32.34;38.84;;